sensor_id;sensor_type;location;lat;lon;timestamp;pressure;altitude;pressure_sealevel;temperature;humidity
73821;BME280;62150;43.582;1.456;2024-03-08T04:40:54;98538.22;;;12.38;100.00
73821;BME280;62150;43.582;1.456;2024-03-08T04:43:22;98548.56;;;12.73;100.00
73821;BME280;62150;43.582;1.456;2024-03-08T04:45:52;98529.03;;;12.93;100.00
73821;BME280;62150;43.582;1.456;2024-03-08T04:48:20;98539.72;;;13.00;100.00
73821;BME280;62150;43.582;1.456;2024-03-08T04:50:47;98535.38;;;13.00;100.00
73821;BME280;62150;43.582;1.456;2024-03-08T04:53:15;98523.59;;;13.31;100.00
73821;BME280;62150;43.582;1.456;2024-03-08T04:55:43;98531.88;;;13.01;100.00
73821;BME280;62150;43.582;1.456;2024-03-08T04:58:12;98528.13;;;13.05;100.00
73821;BME280;62150;43.582;1.456;2024-03-08T05:00:40;98509.34;;;12.81;100.00
73821;BME280;62150;43.582;1.456;2024-03-08T05:03:07;98507.38;;;12.96;100.00
73821;BME280;62150;43.582;1.456;2024-03-08T05:05:35;98514.56;;;13.26;100.00
73821;BME280;62150;43.582;1.456;2024-03-08T05:08:03;98508.81;;;13.11;100.00
73821;BME280;62150;43.582;1.456;2024-03-08T05:10:31;98502.47;;;13.04;100.00
73821;BME280;62150;43.582;1.456;2024-03-08T05:12:59;98486.50;;;12.99;100.00
73821;BME280;62150;43.582;1.456;2024-03-08T05:15:28;98481.84;;;13.15;100.00
73821;BME280;62150;43.582;1.456;2024-03-08T05:17:55;98480.34;;;13.24;100.00
73821;BME280;62150;43.582;1.456;2024-03-08T05:20:23;98484.91;;;13.20;100.00
73821;BME280;62150;43.582;1.456;2024-03-08T05:22:52;98474.81;;;13.17;100.00
73821;BME280;62150;43.582;1.456;2024-03-08T05:25:19;98460.06;;;13.30;100.00
73821;BME280;62150;43.582;1.456;2024-03-08T05:27:47;98465.13;;;13.43;100.00
73821;BME280;62150;43.582;1.456;2024-03-08T05:30:15;98467.19;;;13.04;100.00
73821;BME280;62150;43.582;1.456;2024-03-08T05:32:44;98444.34;;;13.22;100.00
73821;BME280;62150;43.582;1.456;2024-03-08T05:35:11;98459.59;;;13.14;100.00
73821;BME280;62150;43.582;1.456;2024-03-08T05:37:42;98451.38;;;13.09;100.00
73821;BME280;62150;43.582;1.456;2024-03-08T05:40:10;98456.56;;;13.43;100.00
73821;BME280;62150;43.582;1.456;2024-03-08T05:42:37;98463.13;;;13.24;100.00
73821;BME280;62150;43.582;1.456;2024-03-08T05:45:06;98456.88;;;13.04;100.00
73821;BME280;62150;43.582;1.456;2024-03-08T05:47:34;98474.59;;;13.20;100.00
73821;BME280;62150;43.582;1.456;2024-03-08T05:50:03;98461.47;;;13.12;100.00
73821;BME280;62150;43.582;1.456;2024-03-08T05:52:30;98471.66;;;13.25;100.00
73821;BME280;62150;43.582;1.456;2024-03-08T05:54:59;98485.75;;;13.32;100.00
73821;BME280;62150;43.582;1.456;2024-03-08T05:57:27;98489.97;;;13.33;100.00
73821;BME280;62150;43.582;1.456;2024-03-08T05:59:54;98490.66;;;13.24;100.00
73821;BME280;62150;43.582;1.456;2024-03-08T06:02:22;98497.81;;;13.20;100.00
73821;BME280;62150;43.582;1.456;2024-03-08T06:04:49;98498.75;;;13.41;100.00
73821;BME280;62150;43.582;1.456;2024-03-08T06:07:18;98503.22;;;13.39;100.00
73821;BME280;62150;43.582;1.456;2024-03-08T06:09:46;98502.84;;;13.33;100.00
73821;BME280;62150;43.582;1.456;2024-03-08T06:12:14;98509.41;;;13.26;100.00
73821;BME280;62150;43.582;1.456;2024-03-08T06:14:44;98508.47;;;13.27;100.00
73821;BME280;62150;43.582;1.456;2024-03-08T06:17:12;98509.78;;;13.32;100.00
73821;BME280;62150;43.582;1.456;2024-03-08T06:19:40;98515.53;;;13.36;100.00
73821;BME280;62150;43.582;1.456;2024-03-08T06:22:07;98516.22;;;13.38;100.00
73821;BME280;62150;43.582;1.456;2024-03-08T06:24:37;98521.41;;;13.49;100.00
73821;BME280;62150;43.582;1.456;2024-03-08T06:27:04;98529.22;;;13.25;100.00
73821;BME280;62150;43.582;1.456;2024-03-08T06:29:32;98520.31;;;13.63;100.00
73821;BME280;62150;43.582;1.456;2024-03-08T06:31:59;98520.31;;;13.29;100.00
73821;BME280;62150;43.582;1.456;2024-03-08T06:34:28;98531.34;;;13.43;100.00
73821;BME280;62150;43.582;1.456;2024-03-08T06:36:55;98548.47;;;13.55;100.00
73821;BME280;62150;43.582;1.456;2024-03-08T06:39:26;98538.41;;;13.40;100.00
73821;BME280;62150;43.582;1.456;2024-03-08T06:41:57;98543.31;;;13.44;100.00
73821;BME280;62150;43.582;1.456;2024-03-08T06:44:26;98534.03;;;13.52;100.00
73821;BME280;62150;43.582;1.456;2024-03-08T06:46:53;98550.34;;;13.64;100.00
73821;BME280;62150;43.582;1.456;2024-03-08T06:49:21;98547.31;;;13.48;100.00
73821;BME280;62150;43.582;1.456;2024-03-08T06:51:48;98553.84;;;13.52;100.00
73821;BME280;62150;43.582;1.456;2024-03-08T06:54:16;98564.88;;;13.65;100.00
73821;BME280;62150;43.582;1.456;2024-03-08T06:56:43;98565.59;;;13.56;100.00
73821;BME280;62150;43.582;1.456;2024-03-08T06:59:12;98561.22;;;13.90;100.00
73821;BME280;62150;43.582;1.456;2024-03-08T07:01:40;98546.25;;;13.72;100.00
73821;BME280;62150;43.582;1.456;2024-03-08T07:04:07;98554.56;;;13.76;100.00
73821;BME280;62150;43.582;1.456;2024-03-08T07:06:35;98571.34;;;13.59;100.00
73821;BME280;62150;43.582;1.456;2024-03-08T07:09:02;98573.44;;;13.65;100.00
73821;BME280;62150;43.582;1.456;2024-03-08T07:11:30;98573.19;;;13.91;100.00
73821;BME280;62150;43.582;1.456;2024-03-08T07:13:57;98582.13;;;13.87;100.00
73821;BME280;62150;43.582;1.456;2024-03-08T07:16:30;98593.06;;;13.79;100.00
73821;BME280;62150;43.582;1.456;2024-03-08T07:18:58;98595.75;;;13.66;100.00
73821;BME280;62150;43.582;1.456;2024-03-08T07:21:25;98578.25;;;14.03;100.00
73821;BME280;62150;43.582;1.456;2024-03-08T07:23:53;98581.44;;;13.85;100.00
73821;BME280;62150;43.582;1.456;2024-03-08T07:26:32;98587.53;;;13.84;100.00
73821;BME280;62150;43.582;1.456;2024-03-08T07:29:00;98579.69;;;13.85;100.00
73821;BME280;62150;43.582;1.456;2024-03-08T07:31:27;98589.41;;;13.82;100.00
73821;BME280;62150;43.582;1.456;2024-03-08T07:34:12;98581.06;;;14.00;100.00
73821;BME280;62150;43.582;1.456;2024-03-08T07:36:39;98584.81;;;13.96;100.00
73821;BME280;62150;43.582;1.456;2024-03-08T07:39:07;98576.78;;;14.44;100.00
73821;BME280;62150;43.582;1.456;2024-03-08T07:41:37;98570.47;;;14.15;100.00
73821;BME280;62150;43.582;1.456;2024-03-08T07:44:06;98568.72;;;14.15;100.00
73821;BME280;62150;43.582;1.456;2024-03-08T07:46:33;98569.72;;;14.24;100.00
73821;BME280;62150;43.582;1.456;2024-03-08T07:49:01;98569.31;;;14.07;100.00
73821;BME280;62150;43.582;1.456;2024-03-08T07:51:30;98559.47;;;14.01;100.00
73821;BME280;62150;43.582;1.456;2024-03-08T07:53:58;98547.13;;;14.16;100.00
73821;BME280;62150;43.582;1.456;2024-03-08T07:56:26;98547.41;;;14.34;100.00
73821;BME280;62150;43.582;1.456;2024-03-08T07:58:53;98535.19;;;14.36;100.00
73821;BME280;62150;43.582;1.456;2024-03-08T08:01:21;98516.50;;;14.55;100.00
73821;BME280;62150;43.582;1.456;2024-03-08T08:03:49;98518.78;;;14.58;100.00
73821;BME280;62150;43.582;1.456;2024-03-08T08:06:16;98512.38;;;14.52;100.00
73821;BME280;62150;43.582;1.456;2024-03-08T08:08:45;98516.19;;;14.26;100.00
73821;BME280;62150;43.582;1.456;2024-03-08T08:11:13;98511.69;;;14.07;100.00
73821;BME280;62150;43.582;1.456;2024-03-08T08:13:41;98506.19;;;14.00;100.00
73821;BME280;62150;43.582;1.456;2024-03-08T08:16:09;98498.06;;;14.37;100.00
73821;BME280;62150;43.582;1.456;2024-03-08T08:18:38;98496.44;;;14.47;100.00
73821;BME280;62150;43.582;1.456;2024-03-08T08:21:07;98491.28;;;14.36;100.00
73821;BME280;62150;43.582;1.456;2024-03-08T08:23:34;98486.22;;;14.46;100.00
73821;BME280;62150;43.582;1.456;2024-03-08T08:26:03;98484.56;;;14.13;100.00
73821;BME280;62150;43.582;1.456;2024-03-08T08:28:31;98481.63;;;14.06;100.00
73821;BME280;62150;43.582;1.456;2024-03-08T08:30:58;98480.56;;;14.20;100.00
73821;BME280;62150;43.582;1.456;2024-03-08T08:33:26;98472.91;;;14.18;100.00
73821;BME280;62150;43.582;1.456;2024-03-08T08:35:53;98477.06;;;14.30;100.00
73821;BME280;62150;43.582;1.456;2024-03-08T08:38:22;98469.13;;;14.22;100.00
73821;BME280;62150;43.582;1.456;2024-03-08T08:40:49;98479.53;;;14.32;100.00
73821;BME280;62150;43.582;1.456;2024-03-08T08:43:18;98484.75;;;14.21;100.00
73821;BME280;62150;43.582;1.456;2024-03-08T08:45:50;98484.34;;;14.36;100.00
73821;BME280;62150;43.582;1.456;2024-03-08T08:48:20;98486.09;;;14.47;100.00
73821;BME280;62150;43.582;1.456;2024-03-08T08:50:48;98482.13;;;14.32;100.00
73821;BME280;62150;43.582;1.456;2024-03-08T08:53:17;98477.16;;;14.40;100.00
73821;BME280;62150;43.582;1.456;2024-03-08T08:55:44;98469.41;;;14.51;100.00
73821;BME280;62150;43.582;1.456;2024-03-08T08:58:12;98460.00;;;14.50;100.00
73821;BME280;62150;43.582;1.456;2024-03-08T09:00:42;98462.84;;;14.36;100.00
73821;BME280;62150;43.582;1.456;2024-03-08T09:03:10;98471.66;;;14.01;100.00
73821;BME280;62150;43.582;1.456;2024-03-08T09:05:38;98466.94;;;14.18;100.00
73821;BME280;62150;43.582;1.456;2024-03-08T09:08:06;98454.69;;;13.88;100.00
73821;BME280;62150;43.582;1.456;2024-03-08T09:10:34;98450.44;;;13.21;100.00
73821;BME280;62150;43.582;1.456;2024-03-08T09:13:04;98455.41;;;12.67;100.00
73821;BME280;62150;43.582;1.456;2024-03-08T09:15:32;98455.69;;;12.75;100.00
73821;BME280;62150;43.582;1.456;2024-03-08T09:18:01;98479.41;;;12.56;100.00
73821;BME280;62150;43.582;1.456;2024-03-08T09:20:29;98493.81;;;12.59;100.00
73821;BME280;62150;43.582;1.456;2024-03-08T09:22:58;98497.69;;;12.29;100.00
73821;BME280;62150;43.582;1.456;2024-03-08T09:25:26;98513.22;;;12.52;100.00
73821;BME280;62150;43.582;1.456;2024-03-08T09:27:54;98490.97;;;12.51;100.00
73821;BME280;62150;43.582;1.456;2024-03-08T09:30:21;98498.56;;;12.52;100.00
73821;BME280;62150;43.582;1.456;2024-03-08T09:32:50;98493.09;;;12.57;100.00
73821;BME280;62150;43.582;1.456;2024-03-08T09:35:20;98503.94;;;12.49;100.00
73821;BME280;62150;43.582;1.456;2024-03-08T09:37:48;98503.09;;;12.72;100.00
73821;BME280;62150;43.582;1.456;2024-03-08T09:40:17;98500.81;;;12.46;100.00
73821;BME280;62150;43.582;1.456;2024-03-08T09:42:45;98513.56;;;12.23;100.00
73821;BME280;62150;43.582;1.456;2024-03-08T09:45:13;98524.25;;;12.30;100.00
73821;BME280;62150;43.582;1.456;2024-03-08T09:47:42;98538.47;;;12.12;100.00
73821;BME280;62150;43.582;1.456;2024-03-08T09:50:10;98535.94;;;11.86;100.00
73821;BME280;62150;43.582;1.456;2024-03-08T09:52:41;98535.69;;;12.50;100.00
73821;BME280;62150;43.582;1.456;2024-03-08T09:55:10;98536.47;;;12.39;100.00
73821;BME280;62150;43.582;1.456;2024-03-08T09:57:39;98545.25;;;12.36;100.00
73821;BME280;62150;43.582;1.456;2024-03-08T10:00:09;98550.25;;;12.62;100.00
73821;BME280;62150;43.582;1.456;2024-03-08T10:02:50;98549.50;;;12.72;100.00
73821;BME280;62150;43.582;1.456;2024-03-08T10:05:20;98541.75;;;12.37;100.00
73821;BME280;62150;43.582;1.456;2024-03-08T10:07:49;98535.72;;;12.96;100.00
73821;BME280;62150;43.582;1.456;2024-03-08T10:10:17;98527.50;;;12.91;100.00
73821;BME280;62150;43.582;1.456;2024-03-08T10:12:44;98520.19;;;13.20;100.00
73821;BME280;62150;43.582;1.456;2024-03-08T10:15:13;98513.00;;;13.01;100.00
73821;BME280;62150;43.582;1.456;2024-03-08T10:17:42;98488.63;;;13.05;100.00
73821;BME280;62150;43.582;1.456;2024-03-08T10:20:14;98420.66;;;13.51;100.00
73821;BME280;62150;43.582;1.456;2024-03-08T10:22:42;98387.03;;;13.30;100.00
73821;BME280;62150;43.582;1.456;2024-03-08T10:25:12;98390.66;;;13.38;100.00
73821;BME280;62150;43.582;1.456;2024-03-08T10:27:40;98373.31;;;13.40;100.00
73821;BME280;62150;43.582;1.456;2024-03-08T10:30:12;98345.16;;;13.37;100.00
73821;BME280;62150;43.582;1.456;2024-03-08T10:32:41;98334.06;;;13.15;100.00
73821;BME280;62150;43.582;1.456;2024-03-08T10:35:09;98326.47;;;13.02;100.00
73821;BME280;62150;43.582;1.456;2024-03-08T10:37:45;98308.66;;;13.10;100.00
73821;BME280;62150;43.582;1.456;2024-03-08T10:40:17;98324.50;;;13.17;100.00
73821;BME280;62150;43.582;1.456;2024-03-08T10:42:52;98314.84;;;13.07;100.00
73821;BME280;62150;43.582;1.456;2024-03-08T10:45:33;98305.25;;;13.09;100.00
73821;BME280;62150;43.582;1.456;2024-03-08T10:48:13;98307.41;;;13.48;100.00
73821;BME280;62150;43.582;1.456;2024-03-08T10:50:45;98298.13;;;13.45;100.00
73821;BME280;62150;43.582;1.456;2024-03-08T10:53:15;98346.38;;;13.86;100.00
73821;BME280;62150;43.582;1.456;2024-03-08T10:55:44;98393.16;;;14.04;100.00
73821;BME280;62150;43.582;1.456;2024-03-08T10:58:14;98415.66;;;14.34;100.00
73821;BME280;62150;43.582;1.456;2024-03-08T11:00:42;98443.94;;;14.35;100.00
73821;BME280;62150;43.582;1.456;2024-03-08T11:06:31;98473.75;;;14.39;100.00
73821;BME280;62150;43.582;1.456;2024-03-08T11:09:11;98491.50;;;14.33;100.00
73821;BME280;62150;43.582;1.456;2024-03-08T11:11:44;98484.31;;;14.16;100.00
73821;BME280;62150;43.582;1.456;2024-03-08T11:14:43;98469.22;;;14.32;100.00
73821;BME280;62150;43.582;1.456;2024-03-08T11:17:13;98476.38;;;14.60;100.00
73821;BME280;62150;43.582;1.456;2024-03-08T11:19:47;98475.63;;;14.69;100.00
73821;BME280;62150;43.582;1.456;2024-03-08T11:22:22;98487.28;;;14.32;100.00
73821;BME280;62150;43.582;1.456;2024-03-08T11:24:51;98499.38;;;14.63;100.00
73821;BME280;62150;43.582;1.456;2024-03-08T11:27:20;98497.44;;;14.77;100.00
73821;BME280;62150;43.582;1.456;2024-03-08T11:30:00;98501.88;;;14.86;100.00
73821;BME280;62150;43.582;1.456;2024-03-08T11:32:36;98509.38;;;14.89;100.00
73821;BME280;62150;43.582;1.456;2024-03-08T11:35:07;98508.34;;;15.01;100.00
73821;BME280;62150;43.582;1.456;2024-03-08T11:37:36;98515.16;;;15.02;100.00
73821;BME280;62150;43.582;1.456;2024-03-08T11:40:12;98518.13;;;15.18;100.00
73821;BME280;62150;43.582;1.456;2024-03-08T11:42:46;98515.69;;;15.26;100.00
73821;BME280;62150;43.582;1.456;2024-03-08T11:45:14;98507.91;;;15.26;100.00
73821;BME280;62150;43.582;1.456;2024-03-08T11:47:43;98513.91;;;15.27;100.00
73821;BME280;62150;43.582;1.456;2024-03-08T11:50:12;98502.75;;;15.26;100.00
73821;BME280;62150;43.582;1.456;2024-03-08T11:52:40;98502.22;;;15.32;100.00
73821;BME280;62150;43.582;1.456;2024-03-08T11:55:09;98507.72;;;15.39;100.00
73821;BME280;62150;43.582;1.456;2024-03-08T11:57:38;98503.88;;;15.33;100.00
73821;BME280;62150;43.582;1.456;2024-03-08T12:00:15;98506.63;;;15.41;100.00
73821;BME280;62150;43.582;1.456;2024-03-08T12:03:02;98506.13;;;15.48;100.00
73821;BME280;62150;43.582;1.456;2024-03-08T12:05:30;98505.31;;;15.47;100.00
73821;BME280;62150;43.582;1.456;2024-03-08T12:07:59;98499.13;;;15.59;100.00
73821;BME280;62150;43.582;1.456;2024-03-08T12:10:28;98500.19;;;15.66;100.00
73821;BME280;62150;43.582;1.456;2024-03-08T12:12:58;98499.13;;;15.69;100.00
73821;BME280;62150;43.582;1.456;2024-03-08T12:15:29;98495.13;;;15.55;100.00
73821;BME280;62150;43.582;1.456;2024-03-08T12:17:59;98486.31;;;15.58;100.00
73821;BME280;62150;43.582;1.456;2024-03-08T12:20:28;98483.25;;;15.53;100.00
73821;BME280;62150;43.582;1.456;2024-03-08T12:22:57;98471.38;;;15.90;100.00
73821;BME280;62150;43.582;1.456;2024-03-08T12:25:27;98471.63;;;15.78;100.00
73821;BME280;62150;43.582;1.456;2024-03-08T12:28:06;98465.09;;;16.02;100.00
73821;BME280;62150;43.582;1.456;2024-03-08T12:30:47;98468.91;;;15.79;100.00
73821;BME280;62150;43.582;1.456;2024-03-08T12:33:17;98463.88;;;15.87;100.00
73821;BME280;62150;43.582;1.456;2024-03-08T12:35:51;98458.31;;;16.21;100.00
73821;BME280;62150;43.582;1.456;2024-03-08T12:38:21;98463.34;;;16.13;100.00
73821;BME280;62150;43.582;1.456;2024-03-08T12:40:54;98462.41;;;16.14;100.00
73821;BME280;62150;43.582;1.456;2024-03-08T12:43:23;98457.22;;;16.04;100.00
73821;BME280;62150;43.582;1.456;2024-03-08T12:45:52;98457.06;;;16.44;100.00
73821;BME280;62150;43.582;1.456;2024-03-08T12:48:21;98457.88;;;16.45;100.00
73821;BME280;62150;43.582;1.456;2024-03-08T12:50:48;98453.66;;;16.63;100.00
73821;BME280;62150;43.582;1.456;2024-03-08T12:53:17;98457.59;;;16.86;100.00
73821;BME280;62150;43.582;1.456;2024-03-08T12:55:45;98456.78;;;16.66;100.00
73821;BME280;62150;43.582;1.456;2024-03-08T12:58:12;98445.47;;;16.67;100.00
73821;BME280;62150;43.582;1.456;2024-03-08T13:00:42;98445.31;;;16.79;100.00
73821;BME280;62150;43.582;1.456;2024-03-08T13:03:11;98427.97;;;16.79;100.00
73821;BME280;62150;43.582;1.456;2024-03-08T13:05:39;98434.91;;;16.98;100.00
73821;BME280;62150;43.582;1.456;2024-03-08T13:08:08;98429.69;;;16.98;100.00
73821;BME280;62150;43.582;1.456;2024-03-08T13:10:39;98438.13;;;16.24;100.00
73821;BME280;62150;43.582;1.456;2024-03-08T13:13:09;98452.03;;;16.33;100.00
73821;BME280;62150;43.582;1.456;2024-03-08T13:15:37;98451.69;;;16.94;100.00
73821;BME280;62150;43.582;1.456;2024-03-08T13:18:08;98441.06;;;17.24;100.00
73821;BME280;62150;43.582;1.456;2024-03-08T13:20:37;98438.41;;;17.34;100.00
73821;BME280;62150;43.582;1.456;2024-03-08T13:23:05;98437.38;;;17.27;100.00
73821;BME280;62150;43.582;1.456;2024-03-08T13:25:34;98434.09;;;17.25;100.00
73821;BME280;62150;43.582;1.456;2024-03-08T13:28:05;98425.19;;;17.55;100.00
73821;BME280;62150;43.582;1.456;2024-03-08T13:30:32;98413.88;;;17.46;100.00
73821;BME280;62150;43.582;1.456;2024-03-08T13:33:01;98413.66;;;17.12;100.00
73821;BME280;62150;43.582;1.456;2024-03-08T13:35:30;98411.53;;;17.53;100.00
73821;BME280;62150;43.582;1.456;2024-03-08T13:38:00;98404.41;;;17.55;100.00
73821;BME280;62150;43.582;1.456;2024-03-08T13:40:29;98401.66;;;17.66;100.00
73821;BME280;62150;43.582;1.456;2024-03-08T13:42:57;98396.59;;;17.37;100.00
73821;BME280;62150;43.582;1.456;2024-03-08T13:45:27;98389.53;;;17.29;100.00
73821;BME280;62150;43.582;1.456;2024-03-08T13:47:54;98386.00;;;17.48;100.00
73821;BME280;62150;43.582;1.456;2024-03-08T13:50:22;98392.66;;;17.05;100.00
73821;BME280;62150;43.582;1.456;2024-03-08T13:52:53;98379.16;;;17.29;100.00
73821;BME280;62150;43.582;1.456;2024-03-08T13:55:22;98384.16;;;17.13;100.00
73821;BME280;62150;43.582;1.456;2024-03-08T13:57:51;98371.59;;;17.81;100.00
73821;BME280;62150;43.582;1.456;2024-03-08T14:00:19;98373.53;;;17.79;100.00
73821;BME280;62150;43.582;1.456;2024-03-08T14:02:48;98373.00;;;17.75;100.00
73821;BME280;62150;43.582;1.456;2024-03-08T14:05:16;98371.63;;;18.07;100.00
73821;BME280;62150;43.582;1.456;2024-03-08T14:07:46;98358.91;;;17.96;100.00
73821;BME280;62150;43.582;1.456;2024-03-08T14:10:15;98357.41;;;17.93;100.00
73821;BME280;62150;43.582;1.456;2024-03-08T14:12:44;98361.75;;;17.57;100.00
73821;BME280;62150;43.582;1.456;2024-03-08T14:15:14;98356.44;;;17.59;100.00
73821;BME280;62150;43.582;1.456;2024-03-08T14:17:42;98364.13;;;18.04;100.00
73821;BME280;62150;43.582;1.456;2024-03-08T14:20:12;98365.72;;;17.79;100.00
73821;BME280;62150;43.582;1.456;2024-03-08T14:22:40;98366.44;;;17.54;100.00
73821;BME280;62150;43.582;1.456;2024-03-08T14:25:08;98376.41;;;17.76;100.00
73821;BME280;62150;43.582;1.456;2024-03-08T14:27:45;98372.63;;;17.25;100.00
73821;BME280;62150;43.582;1.456;2024-03-08T14:30:13;98369.75;;;17.46;100.00
73821;BME280;62150;43.582;1.456;2024-03-08T14:32:44;98367.28;;;17.27;100.00
73821;BME280;62150;43.582;1.456;2024-03-08T14:35:15;98372.13;;;17.39;100.00
73821;BME280;62150;43.582;1.456;2024-03-08T14:37:42;98363.53;;;17.57;100.00
73821;BME280;62150;43.582;1.456;2024-03-08T14:40:10;98368.16;;;17.35;100.00
73821;BME280;62150;43.582;1.456;2024-03-08T14:42:43;98360.38;;;17.63;100.00
73821;BME280;62150;43.582;1.456;2024-03-08T14:45:11;98361.88;;;17.83;100.00
73821;BME280;62150;43.582;1.456;2024-03-08T14:47:38;98362.25;;;17.88;100.00
73821;BME280;62150;43.582;1.456;2024-03-08T14:50:06;98351.47;;;17.83;100.00
73821;BME280;62150;43.582;1.456;2024-03-08T14:52:35;98355.09;;;18.08;100.00
73821;BME280;62150;43.582;1.456;2024-03-08T14:55:06;98346.44;;;17.99;100.00
73821;BME280;62150;43.582;1.456;2024-03-08T14:57:34;98341.22;;;17.99;100.00
73821;BME280;62150;43.582;1.456;2024-03-08T15:00:03;98335.06;;;17.83;100.00
73821;BME280;62150;43.582;1.456;2024-03-08T15:02:33;98332.19;;;17.68;100.00
73821;BME280;62150;43.582;1.456;2024-03-08T15:05:03;98336.06;;;18.07;100.00
73821;BME280;62150;43.582;1.456;2024-03-08T15:07:35;98331.09;;;18.40;100.00
73821;BME280;62150;43.582;1.456;2024-03-08T15:10:02;98335.22;;;18.51;100.00
73821;BME280;62150;43.582;1.456;2024-03-08T15:12:37;98331.66;;;18.78;100.00
73821;BME280;62150;43.582;1.456;2024-03-08T15:15:11;98325.63;;;18.69;100.00
73821;BME280;62150;43.582;1.456;2024-03-08T15:17:40;98325.16;;;18.82;100.00
73821;BME280;62150;43.582;1.456;2024-03-08T15:20:09;98329.72;;;18.54;100.00
73821;BME280;62150;43.582;1.456;2024-03-08T15:22:42;98326.75;;;18.49;100.00
73821;BME280;62150;43.582;1.456;2024-03-08T15:25:10;98325.66;;;18.51;100.00
73821;BME280;62150;43.582;1.456;2024-03-08T15:27:46;98321.09;;;18.53;100.00
73821;BME280;62150;43.582;1.456;2024-03-08T15:30:16;98321.09;;;18.53;100.00
73821;BME280;62150;43.582;1.456;2024-03-08T15:32:45;98319.72;;;18.41;100.00
73821;BME280;62150;43.582;1.456;2024-03-08T15:35:14;98318.41;;;18.37;100.00
73821;BME280;62150;43.582;1.456;2024-03-08T15:37:43;98311.00;;;18.50;100.00
73821;BME280;62150;43.582;1.456;2024-03-08T15:40:11;98311.44;;;18.63;100.00
73821;BME280;62150;43.582;1.456;2024-03-08T15:42:48;98314.63;;;18.57;100.00
73821;BME280;62150;43.582;1.456;2024-03-08T15:45:18;98313.53;;;18.60;100.00
73821;BME280;62150;43.582;1.456;2024-03-08T15:47:46;98317.66;;;18.70;100.00
73821;BME280;62150;43.582;1.456;2024-03-08T15:50:14;98318.06;;;18.92;100.00
73821;BME280;62150;43.582;1.456;2024-03-08T15:52:44;98315.09;;;18.53;100.00
73821;BME280;62150;43.582;1.456;2024-03-08T15:55:15;98311.66;;;18.52;100.00
73821;BME280;62150;43.582;1.456;2024-03-08T15:57:46;98313.56;;;18.42;100.00
73821;BME280;62150;43.582;1.456;2024-03-08T16:00:17;98309.97;;;18.61;100.00
73821;BME280;62150;43.582;1.456;2024-03-08T16:03:00;98312.97;;;18.82;100.00
73821;BME280;62150;43.582;1.456;2024-03-08T16:05:29;98325.47;;;18.70;100.00
73821;BME280;62150;43.582;1.456;2024-03-08T16:07:56;98314.56;;;18.67;100.00
73821;BME280;62150;43.582;1.456;2024-03-08T16:10:25;98312.50;;;18.53;100.00
73821;BME280;62150;43.582;1.456;2024-03-08T16:12:54;98304.88;;;18.59;100.00
73821;BME280;62150;43.582;1.456;2024-03-08T16:15:23;98312.06;;;18.39;100.00
73821;BME280;62150;43.582;1.456;2024-03-08T16:17:52;98313.03;;;18.30;100.00
73821;BME280;62150;43.582;1.456;2024-03-08T16:20:20;98311.09;;;18.40;100.00
73821;BME280;62150;43.582;1.456;2024-03-08T16:22:49;98322.38;;;18.75;100.00
73821;BME280;62150;43.582;1.456;2024-03-08T16:25:18;98325.66;;;18.51;100.00
73821;BME280;62150;43.582;1.456;2024-03-08T16:27:46;98323.81;;;18.43;100.00
73821;BME280;62150;43.582;1.456;2024-03-08T16:30:14;98320.25;;;18.45;100.00
73821;BME280;62150;43.582;1.456;2024-03-08T16:32:44;98321.06;;;18.45;100.00
73821;BME280;62150;43.582;1.456;2024-03-08T16:35:13;98321.03;;;17.93;100.00
73821;BME280;62150;43.582;1.456;2024-03-08T16:37:43;98328.84;;;17.93;100.00
73821;BME280;62150;43.582;1.456;2024-03-08T16:40:11;98323.13;;;17.90;100.00
73821;BME280;62150;43.582;1.456;2024-03-08T16:42:43;98324.53;;;18.28;100.00
73821;BME280;62150;43.582;1.456;2024-03-08T16:45:11;98320.75;;;18.48;100.00
73821;BME280;62150;43.582;1.456;2024-03-08T16:47:40;98319.28;;;18.46;100.00
73821;BME280;62150;43.582;1.456;2024-03-08T16:50:11;98320.53;;;18.16;100.00
73821;BME280;62150;43.582;1.456;2024-03-08T16:52:41;98318.91;;;18.40;100.00
73821;BME280;62150;43.582;1.456;2024-03-08T16:55:10;98318.81;;;18.24;100.00
73821;BME280;62150;43.582;1.456;2024-03-08T16:57:41;98322.91;;;18.27;100.00
73821;BME280;62150;43.582;1.456;2024-03-08T17:00:14;98330.13;;;18.15;100.00
73821;BME280;62150;43.582;1.456;2024-03-08T17:02:45;98330.09;;;17.89;100.00
73821;BME280;62150;43.582;1.456;2024-03-08T17:05:15;98333.47;;;18.07;100.00
73821;BME280;62150;43.582;1.456;2024-03-08T17:07:44;98328.78;;;18.11;100.00
73821;BME280;62150;43.582;1.456;2024-03-08T17:10:13;98319.63;;;18.25;100.00
73821;BME280;62150;43.582;1.456;2024-03-08T17:12:44;98325.16;;;18.22;100.00
73821;BME280;62150;43.582;1.456;2024-03-08T17:15:14;98333.78;;;18.04;100.00
73821;BME280;62150;43.582;1.456;2024-03-08T17:17:43;98340.06;;;18.20;100.00
73821;BME280;62150;43.582;1.456;2024-03-08T17:20:15;98341.09;;;18.01;100.00
73821;BME280;62150;43.582;1.456;2024-03-08T17:22:46;98346.53;;;18.16;100.00
73821;BME280;62150;43.582;1.456;2024-03-08T17:25:15;98345.06;;;18.13;100.00
73821;BME280;62150;43.582;1.456;2024-03-08T17:27:47;98350.81;;;17.99;100.00
73821;BME280;62150;43.582;1.456;2024-03-08T17:30:19;98353.56;;;17.97;100.00
73821;BME280;62150;43.582;1.456;2024-03-08T17:32:48;98357.50;;;18.01;100.00
73821;BME280;62150;43.582;1.456;2024-03-08T17:35:19;98361.50;;;17.78;100.00
73821;BME280;62150;43.582;1.456;2024-03-08T17:37:48;98363.28;;;17.78;100.00
73821;BME280;62150;43.582;1.456;2024-03-08T17:40:18;98361.28;;;17.89;100.00
73821;BME280;62150;43.582;1.456;2024-03-08T17:42:49;98367.50;;;17.96;100.00
73821;BME280;62150;43.582;1.456;2024-03-08T17:45:17;98380.56;;;18.04;100.00